Archival Weather

Tokyo Intl

Tokyo Intl, Japan (RJTT)

Report from: Friday, June 24, 2022 3:30 PM JST
Current time: Tuesday, August 16, 2022 3:44 PM JST

Current weather
Weather history
Weather forecast

Temperature30.0°C (86.0°F)
Heat index33.4°C (92.1°F)
Dew point22.0°C (71.6°F)
Winds 21 kts (10.8 m/s, 24.2 mph) South-Southwest (210°)
Wind gusts 32 kts (16.5 m/s, 36.8 mph)
Visibility6.2 mi. (10 km)
Clouds Ceiling: Broken clouds 0 ft. (0 m)
Few clouds 3,000 ft. (914 m)
Altimeter29.59 in.Hg (1002 mB)
Relative humidity62 %
Density altitude2,454 ft. (748 m)
Remarks No significant changes expected in the next two hours
Flight conditions Low Instrument Meteorological Conditions
Raw dataRJTT 240630Z 21021G32KT 9999 FEW030 BKN/// 30/22 Q1002 NOSIG RMK 1CU030 A2960
An error has occurred. This application may no longer respond until reloaded. Reload 🗙